createdAt,value
2022-09-15T00:00:06.283Z,54.45
2022-09-15T00:01:06.283Z,55.97
2022-09-15T00:02:06.346Z,57.63
2022-09-15T00:03:06.339Z,55.70
2022-09-15T00:04:06.248Z,54.61
2022-09-15T00:05:06.249Z,56.16
2022-09-15T00:06:06.237Z,57.31
2022-09-15T00:07:06.257Z,55.06
2022-09-15T00:08:06.224Z,55.74
2022-09-15T00:09:06.224Z,57.96
2022-09-15T00:10:06.217Z,55.11
2022-09-15T00:11:06.261Z,56.20
2022-09-15T00:12:06.191Z,53.29
2022-09-15T00:13:06.183Z,54.32
2022-09-15T00:14:06.183Z,56.57
2022-09-15T00:15:06.170Z,56.19
2022-09-15T00:16:06.164Z,55.24
2022-09-15T00:17:06.203Z,55.22
2022-09-15T00:18:06.144Z,56.00
2022-09-15T00:19:06.134Z,55.93
2022-09-15T00:20:06.126Z,55.60
2022-09-15T00:21:06.126Z,57.59
2022-09-15T00:22:06.117Z,56.11
2022-09-15T00:23:06.140Z,57.40
2022-09-15T00:24:06.095Z,55.40
2022-09-15T00:25:06.091Z,56.90
2022-09-15T00:26:06.088Z,55.35
2022-09-15T00:27:06.078Z,56.27
2022-09-15T00:28:06.061Z,56.66
2022-09-15T00:29:06.144Z,57.54
2022-09-15T00:30:06.072Z,56.75
2022-09-15T00:31:06.114Z,56.62
2022-09-15T00:32:06.035Z,55.91
2022-09-15T00:33:06.030Z,55.86
2022-09-15T00:34:06.011Z,55.74
2022-09-15T00:35:06.003Z,56.23
2022-09-15T00:36:06.015Z,58.49
2022-09-15T00:37:05.996Z,58.98
2022-09-15T00:38:05.990Z,56.91
2022-09-15T00:39:05.994Z,58.06
2022-09-15T00:40:06.019Z,56.59
2022-09-15T00:41:05.981Z,55.55
2022-09-15T00:42:05.962Z,54.88
2022-09-15T00:43:05.943Z,57.76
2022-09-15T00:44:05.937Z,57.70
2022-09-15T00:45:05.932Z,59.49
2022-09-15T00:46:06.021Z,57.30
2022-09-15T00:47:18.863Z,57.13
2022-09-15T00:48:06.897Z,57.73
2022-09-15T00:49:05.896Z,56.39
2022-09-15T00:50:05.888Z,57.31
2022-09-15T00:51:05.887Z,56.47
2022-09-15T00:52:05.868Z,55.55
2022-09-15T00:53:05.878Z,54.16
2022-09-15T00:54:05.880Z,56.19
2022-09-15T00:55:05.849Z,56.63
2022-09-15T00:56:05.838Z,56.26
2022-09-15T00:57:05.828Z,55.94
2022-09-15T00:58:05.825Z,59.56
2022-09-15T00:59:05.817Z,57.94
2022-09-15T01:00:05.830Z,57.13
2022-09-15T01:01:05.849Z,56.44
2022-09-15T01:02:05.834Z,57.26
2022-09-15T01:03:05.799Z,55.57
2022-09-15T01:04:05.771Z,58.04
2022-09-15T01:05:05.764Z,57.46
2022-09-15T01:06:05.766Z,59.30
2022-09-15T01:07:05.777Z,57.50
2022-09-15T01:08:05.748Z,59.23
2022-09-15T01:09:05.732Z,56.99
2022-09-15T01:10:05.743Z,59.19
2022-09-15T01:11:05.716Z,57.55
2022-09-15T01:12:05.716Z,57.68
2022-09-15T01:13:05.726Z,60.11
2022-09-15T01:14:05.735Z,57.48
2022-09-15T01:15:05.703Z,57.62
2022-09-15T01:16:05.733Z,56.55
2022-09-15T01:17:05.779Z,56.93
2022-09-15T01:18:05.658Z,57.32
2022-09-15T01:19:05.645Z,55.75
2022-09-15T01:20:05.657Z,58.14
2022-09-15T01:21:05.629Z,56.71
2022-09-15T01:22:05.644Z,55.79
2022-09-15T01:23:05.616Z,55.57
2022-09-15T01:24:05.613Z,54.96
2022-09-15T01:25:05.597Z,56.45
2022-09-15T01:26:05.590Z,58.35
2022-09-15T01:27:18.726Z,59.01
2022-09-15T01:28:06.568Z,56.20
2022-09-15T01:29:05.564Z,56.26
2022-09-15T01:30:05.559Z,57.09
2022-09-15T01:31:05.551Z,56.74
2022-09-15T01:32:05.632Z,58.33
2022-09-15T01:33:05.540Z,57.18
2022-09-15T01:34:05.526Z,57.89
2022-09-15T01:35:05.512Z,57.22
2022-09-15T01:36:05.508Z,55.98
2022-09-15T01:37:05.506Z,57.08
2022-09-15T01:38:05.507Z,58.42
2022-09-15T01:39:05.483Z,56.58
2022-09-15T01:40:05.522Z,57.77
2022-09-15T01:41:05.479Z,57.09
2022-09-15T01:42:05.479Z,56.78
2022-09-15T01:43:05.460Z,56.87
2022-09-15T01:44:05.456Z,57.64
2022-09-15T01:45:05.447Z,56.45
2022-09-15T01:46:05.500Z,55.23
2022-09-15T01:47:05.439Z,56.25
2022-09-15T01:48:05.411Z,58.61
2022-09-15T01:49:05.405Z,61.15
2022-09-15T01:50:05.410Z,58.98
2022-09-15T01:51:05.390Z,56.62
2022-09-15T01:52:05.401Z,56.79
2022-09-15T01:53:05.396Z,56.80
2022-09-15T01:54:05.372Z,57.77
2022-09-15T01:55:05.351Z,57.99
2022-09-15T01:56:05.343Z,56.71
2022-09-15T01:57:05.341Z,56.66
2022-09-15T01:58:05.343Z,59.66
2022-09-15T01:59:05.320Z,57.72
2022-09-15T02:00:05.315Z,58.96
2022-09-15T02:01:05.330Z,57.84
2022-09-15T02:02:05.341Z,57.60
2022-09-15T02:03:05.305Z,56.50
2022-09-15T02:04:05.287Z,60.10
2022-09-15T02:05:05.281Z,59.39
2022-09-15T02:06:05.255Z,58.34
2022-09-15T02:07:05.257Z,56.87
2022-09-15T02:08:05.266Z,57.64
2022-09-15T02:09:05.258Z,59.09
2022-09-15T02:10:05.232Z,58.31
2022-09-15T02:11:05.219Z,61.04
2022-09-15T02:12:05.205Z,57.80
2022-09-15T02:13:05.209Z,58.66
2022-09-15T02:14:05.186Z,58.35
2022-09-15T02:15:05.206Z,58.08
2022-09-15T02:16:05.265Z,59.18
2022-09-15T02:17:05.183Z,59.18
2022-09-15T02:18:05.155Z,58.18
2022-09-15T02:19:05.178Z,58.27
2022-09-15T02:20:05.145Z,56.59
2022-09-15T02:21:05.158Z,58.06
2022-09-15T02:22:05.129Z,59.00
2022-09-15T02:23:05.113Z,59.00
2022-09-15T02:24:05.102Z,56.22
2022-09-15T02:25:05.099Z,58.24
2022-09-15T02:26:05.097Z,59.55
2022-09-15T02:27:05.106Z,59.80
2022-09-15T02:28:05.078Z,59.59
2022-09-15T02:29:05.064Z,59.00
2022-09-15T02:30:05.056Z,59.88
2022-09-15T02:31:05.186Z,57.70
2022-09-15T02:32:07.275Z,59.88
2022-09-15T02:33:05.031Z,59.72
2022-09-15T02:34:05.034Z,58.65
2022-09-15T02:35:05.021Z,57.81
2022-09-15T02:36:05.015Z,59.56
2022-09-15T02:37:05.061Z,58.54
2022-09-15T02:38:04.990Z,58.94
2022-09-15T02:39:04.983Z,58.88
2022-09-15T02:40:05.083Z,59.88
2022-09-15T02:41:04.981Z,58.42
2022-09-15T02:42:04.955Z,58.87
2022-09-15T02:43:04.965Z,61.37
2022-09-15T02:44:04.945Z,60.11
2022-09-15T02:45:04.946Z,58.11
2022-09-15T02:46:04.997Z,59.27
2022-09-15T02:47:04.920Z,59.44
2022-09-15T02:48:04.907Z,58.05
2022-09-15T02:49:04.900Z,59.07
2022-09-15T02:50:04.891Z,58.83
2022-09-15T02:51:04.904Z,59.63
2022-09-15T02:52:04.872Z,60.10
2022-09-15T02:53:04.882Z,60.48
2022-09-15T02:54:04.854Z,60.02
2022-09-15T02:55:04.844Z,59.93
2022-09-15T02:56:04.871Z,60.84
2022-09-15T02:57:04.833Z,61.12
2022-09-15T02:58:04.813Z,60.37
2022-09-15T02:59:04.837Z,60.86
2022-09-15T03:00:04.815Z,61.49
2022-09-15T03:01:04.880Z,57.42
2022-09-15T03:02:04.832Z,60.34
2022-09-15T03:03:04.777Z,61.29
2022-09-15T03:04:04.774Z,59.42
2022-09-15T03:05:04.787Z,60.00
2022-09-15T03:06:04.749Z,59.01
2022-09-15T03:07:04.748Z,60.63
2022-09-15T03:08:04.730Z,61.61
2022-09-15T03:09:04.755Z,59.70
2022-09-15T03:10:04.727Z,61.97
2022-09-15T03:11:04.717Z,62.09
2022-09-15T03:12:04.707Z,62.29
2022-09-15T03:13:04.702Z,60.49
2022-09-15T03:14:04.687Z,61.09
2022-09-15T03:15:04.701Z,62.15
2022-09-15T03:16:04.718Z,60.89
2022-09-15T03:17:04.665Z,60.56
2022-09-15T03:18:04.654Z,61.65
2022-09-15T03:19:04.663Z,61.18
2022-09-15T03:20:04.664Z,62.11
2022-09-15T03:21:04.639Z,61.13
2022-09-15T03:22:04.623Z,59.84
2022-09-15T03:23:04.612Z,62.51
2022-09-15T03:24:04.612Z,63.21
2022-09-15T03:25:04.623Z,61.20
2022-09-15T03:26:04.610Z,61.61
2022-09-15T03:27:04.587Z,61.98
2022-09-15T03:28:04.573Z,62.47
2022-09-15T03:29:04.591Z,62.06
2022-09-15T03:30:04.561Z,61.26
2022-09-15T03:31:04.588Z,61.44
2022-09-15T03:32:04.535Z,61.76
2022-09-15T03:33:04.529Z,61.07
2022-09-15T03:34:04.519Z,62.62
2022-09-15T03:35:04.538Z,63.34
2022-09-15T03:36:04.511Z,62.33
2022-09-15T03:37:04.522Z,62.61
2022-09-15T03:38:04.491Z,63.04
2022-09-15T03:39:04.504Z,61.14
2022-09-15T03:40:04.543Z,59.81
2022-09-15T03:41:04.473Z,62.88
2022-09-15T03:42:04.483Z,61.57
2022-09-15T03:43:04.450Z,62.07
2022-09-15T03:44:04.442Z,62.78
2022-09-15T03:45:04.442Z,62.33
2022-09-15T03:46:04.491Z,61.31
2022-09-15T03:47:04.416Z,61.56
2022-09-15T03:48:04.407Z,62.82
2022-09-15T03:49:04.415Z,63.04
2022-09-15T03:50:04.423Z,62.84
2022-09-15T03:51:04.383Z,62.48
2022-09-15T03:52:04.373Z,62.69
2022-09-15T03:53:04.363Z,60.07
2022-09-15T03:54:04.353Z,61.71
2022-09-15T03:55:04.366Z,62.55
2022-09-15T03:56:04.337Z,63.00
2022-09-15T03:57:04.350Z,61.98
2022-09-15T03:58:04.321Z,61.59
2022-09-15T03:59:04.340Z,61.94
2022-09-15T04:00:04.300Z,61.07
2022-09-15T04:01:04.415Z,61.42
2022-09-15T04:02:04.330Z,62.06
2022-09-15T04:03:04.277Z,62.34
2022-09-15T04:04:04.265Z,62.64
2022-09-15T04:05:04.286Z,61.78
2022-09-15T04:06:04.255Z,61.62
2022-09-15T04:07:04.244Z,61.95
2022-09-15T04:08:04.238Z,62.46
2022-09-15T04:09:04.229Z,62.58
2022-09-15T04:10:04.227Z,61.45
2022-09-15T04:11:04.230Z,63.52
2022-09-15T04:12:04.198Z,61.96
2022-09-15T04:13:04.224Z,61.73
2022-09-15T04:14:04.189Z,62.10
2022-09-15T04:15:04.180Z,62.29
2022-09-15T04:16:04.211Z,61.80
2022-09-15T04:17:04.160Z,63.05
2022-09-15T04:18:04.139Z,61.81
2022-09-15T04:19:04.166Z,61.33
2022-09-15T04:20:04.136Z,61.78
2022-09-15T04:21:04.122Z,60.78
2022-09-15T04:22:04.119Z,61.69
2022-09-15T04:23:04.105Z,62.37
2022-09-15T04:24:04.089Z,61.80
2022-09-15T04:25:04.112Z,60.48
2022-09-15T04:26:04.078Z,61.64
2022-09-15T04:27:04.106Z,61.86
2022-09-15T04:28:04.054Z,62.08
2022-09-15T04:29:04.925Z,62.42
2022-09-15T04:30:04.043Z,62.59
2022-09-15T04:31:04.083Z,62.47
2022-09-15T04:32:04.029Z,62.34
2022-09-15T04:33:04.053Z,62.46
2022-09-15T04:34:04.006Z,63.41
2022-09-15T04:35:04.016Z,63.03
2022-09-15T04:36:03.985Z,62.09
2022-09-15T04:37:03.992Z,63.35
2022-09-15T04:38:03.971Z,62.76
2022-09-15T04:39:03.992Z,62.89
2022-09-15T04:40:04.021Z,62.80
2022-09-15T04:41:03.967Z,63.00
2022-09-15T04:42:03.954Z,63.75
2022-09-15T04:43:03.940Z,62.41
2022-09-15T04:44:03.926Z,62.70
2022-09-15T04:45:03.933Z,63.83
2022-09-15T04:46:03.915Z,63.97
2022-09-15T04:47:03.978Z,61.77
2022-09-15T04:48:03.901Z,63.87
2022-09-15T04:49:03.910Z,63.43
2022-09-15T04:50:03.875Z,61.94
2022-09-15T04:51:03.872Z,63.90
2022-09-15T04:52:07.732Z,63.07
2022-09-15T04:53:04.857Z,63.57
2022-09-15T04:54:03.843Z,63.12
2022-09-15T04:55:03.860Z,61.71
2022-09-15T04:56:03.830Z,62.69
2022-09-15T04:57:03.849Z,63.08
2022-09-15T04:58:03.818Z,63.37
2022-09-15T04:59:04.393Z,62.19
2022-09-15T05:00:03.794Z,61.77
2022-09-15T05:01:03.835Z,62.30
2022-09-15T05:02:03.823Z,63.01
2022-09-15T05:03:03.774Z,63.03
2022-09-15T05:04:03.767Z,62.94
2022-09-15T05:05:03.746Z,62.60
2022-09-15T05:06:03.756Z,64.44
2022-09-15T05:07:03.766Z,63.45
2022-09-15T05:08:03.713Z,62.31
2022-09-15T05:09:09.034Z,63.24
2022-09-15T05:10:03.710Z,61.61
2022-09-15T05:11:03.720Z,62.11
2022-09-15T05:12:03.682Z,63.48
2022-09-15T05:13:03.701Z,63.25
2022-09-15T05:14:03.671Z,64.56
2022-09-15T05:15:03.664Z,62.73
2022-09-15T05:16:03.692Z,63.16
2022-09-15T05:17:03.654Z,61.93
2022-09-15T05:18:03.645Z,62.39
2022-09-15T05:19:03.651Z,62.25
2022-09-15T05:20:03.619Z,63.19
2022-09-15T05:21:03.612Z,63.57
2022-09-15T05:22:03.608Z,64.24
2022-09-15T05:23:03.596Z,64.94
2022-09-15T05:24:03.603Z,63.14
2022-09-15T05:25:03.603Z,64.16
2022-09-15T05:26:03.575Z,64.57
2022-09-15T05:27:03.556Z,63.90
2022-09-15T05:28:03.550Z,63.07
2022-09-15T05:29:03.547Z,61.80
2022-09-15T05:30:31.776Z,63.11
2022-09-15T05:31:04.627Z,63.92
2022-09-15T05:32:03.523Z,63.34
2022-09-15T05:33:03.512Z,63.45
2022-09-15T05:34:03.524Z,64.17
2022-09-15T05:35:03.513Z,63.69
2022-09-15T05:36:03.507Z,62.49
2022-09-15T05:37:03.497Z,63.25
2022-09-15T05:38:03.465Z,62.47
2022-09-15T05:39:03.460Z,63.89
2022-09-15T05:40:08.292Z,63.67
2022-09-15T05:43:30.113Z,61.83
2022-09-15T05:44:30.108Z,62.67
2022-09-15T05:45:30.086Z,62.79
2022-09-15T05:46:30.144Z,64.18
2022-09-15T05:47:30.073Z,64.09
2022-09-15T05:48:30.063Z,63.02
2022-09-15T05:49:30.043Z,63.50
2022-09-15T05:50:30.037Z,64.38
2022-09-15T05:51:30.053Z,65.08
2022-09-15T05:52:30.045Z,63.02
2022-09-15T05:53:30.023Z,62.70
2022-09-15T05:54:30.031Z,61.66
2022-09-15T05:55:29.997Z,62.05
2022-09-15T05:56:29.985Z,62.07
2022-09-15T05:57:29.997Z,62.17
2022-09-15T05:58:29.969Z,62.86
2022-09-15T05:59:29.957Z,64.22
2022-09-15T06:00:29.948Z,63.80
2022-09-15T06:01:30.035Z,63.47
2022-09-15T06:02:29.959Z,65.63
2022-09-15T06:03:31.079Z,61.83
2022-09-15T06:04:29.923Z,62.28
2022-09-15T06:05:29.905Z,62.65
2022-09-15T06:06:29.900Z,62.79
2022-09-15T06:07:29.884Z,63.41
2022-09-15T06:08:29.878Z,62.18
2022-09-15T06:09:29.884Z,64.04
2022-09-15T06:10:29.860Z,61.42
2022-09-15T06:11:29.859Z,61.38
2022-09-15T06:12:29.857Z,62.24
2022-09-15T06:13:29.836Z,62.61
2022-09-15T06:14:29.826Z,62.45
2022-09-15T06:15:29.839Z,61.92
2022-09-15T06:16:29.856Z,61.51
2022-09-15T06:17:29.803Z,61.88
2022-09-15T06:18:29.793Z,61.65
2022-09-15T06:19:29.789Z,60.99
2022-09-15T06:20:29.777Z,63.50
2022-09-15T06:21:29.795Z,61.56
2022-09-15T06:22:29.756Z,60.51
2022-09-15T06:23:29.759Z,60.79
2022-09-15T06:24:29.748Z,63.49
2022-09-15T06:25:29.733Z,62.18
2022-09-15T06:26:29.726Z,61.20
2022-09-15T06:27:29.730Z,60.53
2022-09-15T06:28:29.706Z,61.09
2022-09-15T06:29:29.701Z,61.93
2022-09-15T06:30:29.693Z,62.89
2022-09-15T06:31:29.737Z,60.81
2022-09-15T06:32:29.702Z,62.54
2022-09-15T06:33:29.669Z,62.17
2022-09-15T06:34:29.665Z,63.32
2022-09-15T06:35:29.658Z,62.52
2022-09-15T06:36:29.643Z,62.81
2022-09-15T06:37:29.642Z,62.40
2022-09-15T06:38:29.640Z,62.77
2022-09-15T06:39:29.620Z,60.91
2022-09-15T06:40:29.664Z,58.49
2022-09-15T06:41:38.456Z,59.69
2022-09-15T06:42:30.687Z,60.17
2022-09-15T06:43:29.610Z,59.76
2022-09-15T06:44:29.605Z,61.30
2022-09-15T06:45:29.573Z,60.32
2022-09-15T06:46:29.624Z,60.00
2022-09-15T06:47:29.559Z,58.63
2022-09-15T06:48:29.546Z,59.52
2022-09-15T06:49:29.540Z,57.66
2022-09-15T06:50:29.545Z,57.10
2022-09-15T06:51:29.520Z,58.64
2022-09-15T06:52:29.571Z,58.20
2022-09-15T06:53:29.512Z,59.14
2022-09-15T06:54:29.490Z,58.92
2022-09-15T06:55:29.510Z,60.81
2022-09-15T06:56:29.486Z,60.12
2022-09-15T06:57:29.480Z,59.81
2022-09-15T06:58:29.467Z,60.00
2022-09-15T06:59:29.468Z,60.53
2022-09-15T07:00:29.462Z,60.25
2022-09-15T07:01:29.467Z,60.64
2022-09-15T07:02:29.565Z,61.19
2022-09-15T07:03:29.571Z,61.29
2022-09-15T07:04:29.422Z,60.25
2022-09-15T07:05:29.433Z,58.60
2022-09-15T07:06:29.403Z,59.94
2022-09-15T07:07:29.401Z,58.14
2022-09-15T07:08:29.392Z,59.84
2022-09-15T07:09:29.381Z,60.21
2022-09-15T07:10:29.389Z,59.05
2022-09-15T07:11:29.373Z,60.02
2022-09-15T07:12:29.373Z,59.16
2022-09-15T07:13:29.352Z,60.70
2022-09-15T07:14:29.344Z,60.59
2022-09-15T07:15:29.346Z,61.38
2022-09-15T07:16:29.483Z,61.41
2022-09-15T07:17:29.318Z,58.13
2022-09-15T07:18:29.301Z,58.93
2022-09-15T07:19:29.302Z,60.84
2022-09-15T07:20:29.283Z,59.61
2022-09-15T07:21:29.286Z,60.43
2022-09-15T07:22:29.298Z,60.09
2022-09-15T07:23:29.260Z,58.76
2022-09-15T07:24:29.252Z,58.48
2022-09-15T07:25:29.251Z,59.82
2022-09-15T07:26:29.246Z,60.57
2022-09-15T07:27:29.251Z,60.38
2022-09-15T07:28:29.225Z,59.00
2022-09-15T07:29:29.217Z,59.56
2022-09-15T07:30:29.206Z,61.00
2022-09-15T07:31:29.249Z,59.53
2022-09-15T07:32:29.192Z,59.34
2022-09-15T07:33:29.195Z,61.36
2022-09-15T07:34:29.193Z,60.34
2022-09-15T07:35:29.193Z,59.85
2022-09-15T07:36:29.164Z,61.59
2022-09-15T07:37:29.160Z,60.69
2022-09-15T07:38:29.149Z,59.29
2022-09-15T07:39:29.151Z,61.17
2022-09-15T07:40:29.263Z,61.09
2022-09-15T07:41:29.128Z,60.12
2022-09-15T07:42:32.162Z,61.28
2022-09-15T07:43:29.124Z,60.38
2022-09-15T07:44:29.116Z,58.05
2022-09-15T07:45:29.132Z,60.10
2022-09-15T07:46:29.086Z,61.37
2022-09-15T07:47:29.077Z,59.18
2022-09-15T07:48:29.077Z,60.15
2022-09-15T07:49:29.061Z,60.13
2022-09-15T07:50:29.060Z,60.17
2022-09-15T07:51:29.070Z,60.19
2022-09-15T07:52:29.084Z,60.48
2022-09-15T07:53:29.031Z,60.41
2022-09-15T07:54:29.015Z,60.91
2022-09-15T07:55:29.032Z,58.77
2022-09-15T07:56:29.006Z,58.04
2022-09-15T07:57:28.993Z,59.03
2022-09-15T07:58:28.993Z,59.11
2022-09-15T07:59:28.981Z,58.97
2022-09-15T08:00:29.036Z,59.91
2022-09-15T08:01:29.033Z,58.82
2022-09-15T08:02:28.953Z,58.81
2022-09-15T08:03:28.944Z,57.54
2022-09-15T08:04:28.933Z,59.41
2022-09-15T08:05:28.934Z,59.88
2022-09-15T08:06:28.922Z,59.41
2022-09-15T08:07:28.933Z,59.39
2022-09-15T08:08:28.923Z,58.42
2022-09-15T08:09:28.897Z,57.85
2022-09-15T08:10:28.887Z,58.67
2022-09-15T08:11:28.886Z,59.84
2022-09-15T08:12:28.939Z,59.02
2022-09-15T08:13:28.854Z,59.67
2022-09-15T08:14:28.856Z,59.17
2022-09-15T08:15:28.835Z,59.68
2022-09-15T08:16:28.904Z,59.07
2022-09-15T08:17:28.823Z,59.85
2022-09-15T08:18:28.836Z,60.59
2022-09-15T08:19:28.811Z,59.36
2022-09-15T08:20:28.805Z,58.85
2022-09-15T08:21:28.813Z,59.02
2022-09-15T08:22:28.850Z,57.43
2022-09-15T08:23:28.777Z,58.85
2022-09-15T08:24:28.773Z,58.66
2022-09-15T08:25:28.782Z,60.03
2022-09-15T08:26:28.777Z,59.83
2022-09-15T08:27:28.762Z,58.06
2022-09-15T08:28:28.750Z,57.36
2022-09-15T08:29:28.917Z,58.63
2022-09-15T08:30:28.778Z,59.23
2022-09-15T08:31:28.789Z,59.31
2022-09-15T08:32:28.765Z,58.98
2022-09-15T08:33:28.706Z,59.89
2022-09-15T08:34:28.710Z,60.06
2022-09-15T08:35:28.704Z,60.39
2022-09-15T08:36:28.695Z,59.69
2022-09-15T08:37:28.669Z,59.87
2022-09-15T08:38:28.666Z,60.07
2022-09-15T08:39:28.659Z,60.33
2022-09-15T08:40:28.692Z,59.97
2022-09-15T08:41:28.644Z,59.35
2022-09-15T08:42:28.639Z,59.74
2022-09-15T08:43:28.619Z,60.05
2022-09-15T08:44:28.636Z,60.55
2022-09-15T08:45:28.611Z,60.00
2022-09-15T08:46:28.639Z,60.90
2022-09-15T08:47:28.592Z,60.72
2022-09-15T08:48:28.594Z,61.57
2022-09-15T08:49:50.145Z,59.06
2022-09-15T08:50:29.573Z,58.77
2022-09-15T08:51:28.558Z,58.45
2022-09-15T08:52:28.579Z,58.53
2022-09-15T08:53:28.575Z,59.08
2022-09-15T08:54:28.553Z,59.40
2022-09-15T08:55:28.560Z,58.73
2022-09-15T08:56:28.527Z,56.64
2022-09-15T08:57:28.516Z,56.29
2022-09-15T08:58:28.503Z,57.92
2022-09-15T08:59:28.498Z,59.86
2022-09-15T09:00:28.510Z,59.67
2022-09-15T09:01:28.521Z,57.47
2022-09-15T09:02:28.517Z,57.95
2022-09-15T09:03:28.470Z,58.36
2022-09-15T09:04:28.460Z,57.39
2022-09-15T09:05:28.456Z,58.18
2022-09-15T09:06:28.437Z,59.17
2022-09-15T09:07:28.462Z,59.45
2022-09-15T09:08:28.437Z,58.49
2022-09-15T09:09:28.415Z,56.70
2022-09-15T09:10:28.424Z,57.40
2022-09-15T09:11:28.412Z,58.67
2022-09-15T09:12:28.401Z,59.46
2022-09-15T09:13:32.003Z,58.14
2022-09-15T09:14:28.376Z,57.99
2022-09-15T09:15:28.429Z,58.96
2022-09-15T09:16:28.391Z,59.64
2022-09-15T09:17:28.362Z,59.73
2022-09-15T09:18:28.351Z,59.26
2022-09-15T09:19:32.040Z,59.08
2022-09-15T09:20:28.335Z,59.47
2022-09-15T09:21:28.327Z,60.57
2022-09-15T09:22:28.342Z,60.03
2022-09-15T09:23:28.315Z,59.80
2022-09-15T09:24:28.319Z,57.14
2022-09-15T09:25:28.636Z,57.75
2022-09-15T09:26:28.281Z,58.30
2022-09-15T09:27:28.305Z,57.57
2022-09-15T09:28:28.265Z,56.65
2022-09-15T09:29:28.283Z,58.74
2022-09-15T09:30:28.257Z,57.29
2022-09-15T09:31:28.287Z,56.37
2022-09-15T09:32:28.232Z,57.06
2022-09-15T09:33:28.227Z,57.44
2022-09-15T09:34:28.231Z,57.00
2022-09-15T09:35:28.231Z,57.80
2022-09-15T09:36:28.206Z,56.89
2022-09-15T09:37:28.229Z,57.30
2022-09-15T09:38:28.197Z,57.43
2022-09-15T09:39:28.210Z,56.77
2022-09-15T09:40:28.283Z,56.63
2022-09-15T09:41:28.171Z,56.59
2022-09-15T09:42:28.196Z,56.55
2022-09-15T09:43:28.210Z,57.61
2022-09-15T09:44:28.137Z,58.10
2022-09-15T09:45:28.159Z,57.18
2022-09-15T09:46:28.227Z,56.70
2022-09-15T09:47:28.140Z,57.93
2022-09-15T09:48:28.120Z,58.35
2022-09-15T09:49:28.115Z,57.21
2022-09-15T09:50:28.096Z,58.27
2022-09-15T09:51:28.112Z,56.83
2022-09-15T09:52:28.096Z,56.71
2022-09-15T09:53:28.078Z,56.32
2022-09-15T09:54:28.071Z,57.86
2022-09-15T09:55:28.063Z,58.74
2022-09-15T09:56:28.058Z,59.13
2022-09-15T09:57:28.076Z,58.30
2022-09-15T09:58:28.038Z,58.95
2022-09-15T09:59:28.047Z,57.10
2022-09-15T10:00:28.028Z,57.59
2022-09-15T10:01:28.077Z,57.53
2022-09-15T10:02:28.049Z,57.95
2022-09-15T10:03:32.187Z,59.61
2022-09-15T10:04:29.014Z,60.50
2022-09-15T10:05:27.992Z,56.67
2022-09-15T10:06:27.975Z,57.36
2022-09-15T10:07:27.972Z,57.84
2022-09-15T10:08:27.954Z,56.79
2022-09-15T10:09:33.090Z,56.89
2022-09-15T10:10:27.959Z,58.22
2022-09-15T10:11:27.941Z,58.26
2022-09-15T10:12:27.944Z,58.05
2022-09-15T10:13:27.953Z,59.02
2022-09-15T10:14:27.916Z,57.76
2022-09-15T10:15:27.910Z,57.48
2022-09-15T10:16:27.940Z,57.40
2022-09-15T10:17:27.890Z,56.03
2022-09-15T10:18:27.894Z,56.28
2022-09-15T10:19:27.897Z,57.31
2022-09-15T10:20:27.868Z,56.19
2022-09-15T10:21:27.861Z,58.16
2022-09-15T10:22:27.861Z,58.34
2022-09-15T10:23:27.850Z,58.73
2022-09-15T10:24:27.843Z,58.25
2022-09-15T10:25:44.242Z,56.67
2022-09-15T10:26:27.822Z,56.76
2022-09-15T10:27:27.809Z,57.50
2022-09-15T10:28:27.809Z,57.77
2022-09-15T10:29:27.806Z,57.54
2022-09-15T10:30:27.813Z,58.12
2022-09-15T10:31:27.865Z,57.35
2022-09-15T10:32:27.788Z,57.53
2022-09-15T10:33:27.794Z,57.40
2022-09-15T10:34:27.753Z,58.87
2022-09-15T10:35:27.778Z,59.00
2022-09-15T10:36:27.785Z,59.87
2022-09-15T10:37:27.738Z,57.10
2022-09-15T10:38:27.725Z,57.44
2022-09-15T10:39:27.720Z,57.77
2022-09-15T10:40:27.802Z,57.95
2022-09-15T10:41:27.706Z,59.22
2022-09-15T10:42:27.717Z,57.15
2022-09-15T10:43:27.697Z,58.11
2022-09-15T10:44:27.690Z,57.98
2022-09-15T10:45:27.763Z,57.05
2022-09-15T10:46:27.674Z,57.13
2022-09-15T10:47:27.699Z,56.82
2022-09-15T10:48:27.656Z,58.21
2022-09-15T10:49:27.650Z,58.61
2022-09-15T10:50:27.639Z,59.04
2022-09-15T10:51:27.652Z,61.19
2022-09-15T10:52:27.624Z,58.38
2022-09-15T10:53:27.664Z,58.50
2022-09-15T10:54:27.637Z,58.00
2022-09-15T10:55:48.493Z,58.78
2022-09-15T10:56:27.594Z,57.30
2022-09-15T10:58:27.583Z,58.86
2022-09-15T10:59:27.593Z,58.38
2022-09-15T11:00:27.563Z,57.10
2022-09-15T11:01:27.588Z,56.60
2022-09-15T11:02:27.586Z,57.51
2022-09-15T11:03:27.546Z,58.35
2022-09-15T11:04:27.530Z,57.21
2022-09-15T11:05:27.545Z,57.58
2022-09-15T11:06:27.517Z,59.29
2022-09-15T11:07:27.506Z,59.35
2022-09-15T11:08:27.498Z,59.11
2022-09-15T11:09:27.485Z,61.02
2022-09-15T11:10:27.491Z,58.67
2022-09-15T11:11:27.490Z,59.27
2022-09-15T11:12:29.444Z,59.30
2022-09-15T11:13:27.455Z,58.36
2022-09-15T11:14:27.445Z,58.65
2022-09-15T11:15:27.458Z,59.47
2022-09-15T11:16:27.469Z,59.22
2022-09-15T11:17:27.416Z,57.53
2022-09-15T11:18:27.420Z,57.76
2022-09-15T11:19:27.422Z,58.11
2022-09-15T11:20:27.413Z,57.74
2022-09-15T11:21:27.386Z,59.09
2022-09-15T11:22:27.375Z,58.18
2022-09-15T11:23:27.383Z,58.71
2022-09-15T11:24:27.361Z,59.33
2022-09-15T11:25:27.355Z,58.21
2022-09-15T11:26:27.365Z,59.13
2022-09-15T11:27:27.362Z,58.57
2022-09-15T11:28:27.331Z,57.66
2022-09-15T11:29:27.317Z,59.96
2022-09-15T11:30:27.310Z,59.90
2022-09-15T11:31:27.341Z,59.85
2022-09-15T11:32:27.306Z,60.32
2022-09-15T11:33:27.303Z,59.87
2022-09-15T11:34:27.278Z,60.00
2022-09-15T11:35:27.267Z,58.37
2022-09-15T11:36:27.262Z,58.61
2022-09-15T11:37:27.252Z,57.86
2022-09-15T11:38:27.240Z,60.09
2022-09-15T11:39:27.258Z,58.74
2022-09-15T11:40:27.290Z,58.65
2022-09-15T11:41:27.216Z,57.92
2022-09-15T11:42:27.211Z,59.23
2022-09-15T11:43:27.196Z,58.97
2022-09-15T11:44:27.193Z,58.63
2022-09-15T11:45:27.207Z,58.37
2022-09-15T11:46:27.219Z,58.59
2022-09-15T11:47:27.165Z,59.04
2022-09-15T11:48:27.163Z,58.63
2022-09-15T11:49:27.145Z,56.26
2022-09-15T11:50:27.144Z,57.56
2022-09-15T11:51:27.142Z,59.65
2022-09-15T11:52:27.128Z,57.30
2022-09-15T11:53:27.117Z,59.72
2022-09-15T11:54:29.984Z,59.09
2022-09-15T11:55:27.093Z,58.92
2022-09-15T11:56:27.087Z,58.90
2022-09-15T11:57:27.097Z,57.71
2022-09-15T11:58:27.066Z,59.42
2022-09-15T11:59:27.085Z,58.57
2022-09-15T12:00:27.056Z,58.42
2022-09-15T12:01:27.125Z,57.64
2022-09-15T12:02:27.223Z,58.27
2022-09-15T12:03:27.061Z,57.90
2022-09-15T12:04:27.032Z,59.37
2022-09-15T12:05:27.017Z,59.40
2022-09-15T12:06:27.009Z,59.42
2022-09-15T12:07:27.028Z,59.01
2022-09-15T12:08:27.007Z,58.91
2022-09-15T12:09:27.001Z,59.69
2022-09-15T12:10:27.046Z,59.27
2022-09-15T12:11:26.992Z,58.99
2022-09-15T12:12:30.645Z,58.53
2022-09-15T12:13:26.945Z,58.78
2022-09-15T12:14:26.969Z,58.58
2022-09-15T12:15:26.937Z,58.08
2022-09-15T12:16:26.934Z,58.88
2022-09-15T12:17:26.917Z,58.70
2022-09-15T12:18:38.478Z,58.55
2022-09-15T12:19:27.925Z,58.16
2022-09-15T12:20:26.892Z,59.41
2022-09-15T12:21:26.887Z,56.55
2022-09-15T12:22:26.879Z,56.45
2022-09-15T12:23:26.873Z,57.85
2022-09-15T12:24:26.851Z,58.68
2022-09-15T12:25:26.863Z,59.27
2022-09-15T12:26:26.858Z,57.81
2022-09-15T12:27:26.831Z,57.86
2022-09-15T12:28:26.902Z,56.46
2022-09-15T12:29:26.808Z,58.00
2022-09-15T12:30:26.814Z,58.00
2022-09-15T12:31:26.873Z,58.12
2022-09-15T12:32:26.795Z,58.18
2022-09-15T12:33:26.787Z,57.59
2022-09-15T12:34:26.766Z,58.16
2022-09-15T12:35:26.784Z,58.14
2022-09-15T12:36:26.763Z,59.11
2022-09-15T12:37:26.749Z,58.02
2022-09-15T12:38:26.738Z,57.28
2022-09-15T12:39:26.730Z,58.26
2022-09-15T12:40:26.808Z,58.39
2022-09-15T12:41:26.713Z,57.87
2022-09-15T12:42:26.705Z,57.78
2022-09-15T12:43:26.703Z,58.56
2022-09-15T12:44:26.698Z,58.89
2022-09-15T12:45:26.695Z,59.65
2022-09-15T12:46:26.761Z,57.10
2022-09-15T12:47:26.687Z,57.87
2022-09-15T12:48:26.665Z,57.85
2022-09-15T12:49:26.649Z,57.55
2022-09-15T12:50:26.712Z,58.30
2022-09-15T12:51:26.635Z,57.27
2022-09-15T12:52:26.641Z,57.28
2022-09-15T12:53:26.650Z,57.38
2022-09-15T12:54:26.613Z,57.20
2022-09-15T12:55:26.603Z,57.13